Time;durP1;ratioP1;P1;durP2;ratioP2;P2;SDS_P1;SDS_P2;PMS_P1;PMS_P2;Temp;Humidity;BMP_temperature;BMP_pressure;BME280_temperature;BME280_humidity;BME280_pressure;Samples;Min_cycle;Max_cycle;Signal;HPM_P1;HPM_P2
2022/06/13 00:04:20;;;;;;;16.00;4.10;;;;;;;-147.53;100.00;57128.34;10321615;28;20062;-73
2022/06/13 00:09:22;;;;;;;11.57;3.88;;;;;;;-147.53;100.00;57128.34;10319040;28;20046;-74
2022/06/13 00:14:24;;;;;;;18.15;5.45;;;;;;;-147.53;100.00;57128.34;10327289;28;20125;-73
2022/06/13 00:19:25;;;;;;;21.23;4.20;;;;;;;-147.53;100.00;57128.34;10321886;28;20060;-73
2022/06/13 00:24:27;;;;;;;16.92;4.90;;;;;;;-147.53;100.00;57128.34;10321451;28;20054;-73
2022/06/13 00:29:28;;;;;;;13.73;4.38;;;;;;;-147.53;100.00;57128.34;10303912;28;20042;-73
2022/06/13 00:34:30;;;;;;;13.45;3.72;;;;;;;-147.53;100.00;57128.34;10320409;28;20054;-72
2022/06/13 00:39:31;;;;;;;13.00;4.47;;;;;;;-147.53;100.00;57128.34;10319753;28;20422;-73
2022/06/13 00:44:36;;;;;;;20.75;4.82;;;;;;;-147.53;100.00;57128.34;10319082;28;20142;-72
2022/06/13 00:49:43;;;;;;;16.13;5.32;;;;;;;-147.53;100.00;57128.34;10325740;28;20386;-73
2022/06/13 00:54:47;;;;;;;19.05;4.63;;;;;;;-147.53;100.00;57128.34;10318942;28;20169;-73
2022/06/13 00:59:54;;;;;;;16.38;4.95;;;;;;;-147.53;100.00;57128.34;10318181;28;20150;-73
2022/06/13 01:04:57;;;;;;;18.10;5.55;;;;;;;-147.53;100.00;57128.34;10319133;28;20646;-73
2022/06/13 01:15:42;;;;;;;16.70;5.18;;;;;;;-147.53;100.00;57128.34;10314942;28;20048;-73
2022/06/13 01:21:07;;;;;;;20.55;5.97;;;;;;;-147.53;100.00;57128.34;10317510;28;20447;-73
2022/06/13 01:26:44;;;;;;;20.60;6.18;;;;;;;-147.53;100.00;57128.34;10318049;28;20046;-73
2022/06/13 01:32:07;;;;;;;17.92;6.07;;;;;;;-147.53;100.00;57128.34;10319690;28;20047;-73
2022/06/13 01:37:17;;;;;;;29.95;7.28;;;;;;;-147.53;100.00;57128.34;10318113;28;20038;-73
2022/06/13 01:42:25;;;;;;;26.15;6.90;;;;;;;-147.53;100.00;57128.34;10318019;28;20046;-73
2022/06/13 01:47:34;;;;;;;22.85;7.22;;;;;;;-147.53;100.00;57128.34;10317193;28;20046;-73
2022/06/13 01:53:20;;;;;;;22.23;7.20;;;;;;;-147.53;100.00;57128.34;10324061;28;20495;-73
2022/06/13 01:58:37;;;;;;;23.38;6.85;;;;;;;-147.53;100.00;57128.34;10313968;28;20127;-72
2022/06/13 02:03:47;;;;;;;16.92;6.55;;;;;;;-147.53;100.00;57128.34;10316536;28;20601;-73
2022/06/13 02:08:57;;;;;;;18.05;6.63;;;;;;;-147.53;100.00;57128.34;10316906;28;20478;-73
2022/06/13 02:14:06;;;;;;;19.23;6.57;;;;;;;-147.53;100.00;57128.34;10315727;28;20525;-73
2022/06/13 02:19:18;;;;;;;19.35;6.75;;;;;;;-147.53;100.00;57128.34;10316295;28;20133;-73
2022/06/13 02:24:24;;;;;;;25.02;6.55;;;;;;;-147.53;100.00;57128.34;10322826;28;20046;-73
2022/06/13 02:29:42;;;;;;;15.18;5.15;;;;;;;-147.53;100.00;57128.34;10317060;28;20050;-73
2022/06/13 02:34:52;;;;;;;14.07;5.35;;;;;;;-147.53;100.00;57128.34;10317108;28;20297;-73
2022/06/13 02:40:03;;;;;;;21.55;6.32;;;;;;;-147.53;100.00;57128.34;10305704;28;20042;-72
2022/06/13 02:45:27;;;;;;;20.80;5.68;;;;;;;-147.53;100.00;57128.34;10321932;28;20072;-73
2022/06/13 02:50:45;;;;;;;21.65;7.07;;;;;;;-147.53;100.00;57128.34;10322834;28;20064;-73
2022/06/13 02:56:07;;;;;;;24.08;8.00;;;;;;;-147.53;100.00;57128.34;10316875;28;20051;-73
2022/06/13 03:01:26;;;;;;;23.50;6.60;;;;;;;-147.53;100.00;57128.34;10315214;28;20050;-73
2022/06/13 03:07:12;;;;;;;16.88;6.30;;;;;;;-147.53;100.00;57128.34;10315485;28;20081;-73
2022/06/13 03:12:31;;;;;;;13.45;4.85;;;;;;;-147.53;100.00;57128.34;10313961;28;20043;-73
2022/06/13 03:17:36;;;;;;;14.95;6.03;;;;;;;-147.53;100.00;57128.34;10318454;28;20375;-73
2022/06/13 03:23:12;;;;;;;11.80;5.28;;;;;;;-147.53;100.00;57128.34;10296545;28;20753;-73
2022/06/13 03:28:24;;;;;;;17.60;5.75;;;;;;;-147.53;100.00;57128.34;10297405;28;20088;-73
2022/06/13 03:33:41;;;;;;;39.97;7.13;;;;;;;-147.53;100.00;57128.34;10314420;28;20050;-73
2022/06/13 03:38:49;;;;;;;20.05;6.15;;;;;;;-147.53;100.00;57128.34;10315469;28;20119;-73
2022/06/13 03:44:15;;;;;;;17.08;5.57;;;;;;;-147.53;100.00;57128.34;10313901;28;20057;-72
2022/06/13 03:49:19;;;;;;;15.27;5.75;;;;;;;-147.53;100.00;57128.34;10291327;28;20057;-73
2022/06/13 03:54:28;;;;;;;21.10;6.45;;;;;;;-147.53;100.00;57128.34;10314487;28;20057;-73
2022/06/13 03:59:37;;;;;;;22.58;5.55;;;;;;;-147.53;100.00;57128.34;10321580;28;20042;-74
2022/06/13 04:04:44;;;;;;;16.83;5.82;;;;;;;-147.53;100.00;57128.34;10321368;28;20055;-73
2022/06/13 04:09:55;;;;;;;18.08;5.53;;;;;;;-147.53;100.00;57128.34;10314390;28;20042;-73
2022/06/13 04:15:26;;;;;;;16.25;5.78;;;;;;;-147.53;100.00;57128.34;10320987;28;20568;-73
2022/06/13 04:20:48;;;;;;;20.15;5.68;;;;;;;-147.53;100.00;57128.34;10327309;28;20050;-74
2022/06/13 04:25:50;;;;;;;13.07;5.25;;;;;;;-147.53;100.00;57128.34;10321230;28;20042;-73
2022/06/13 04:30:54;;;;;;;14.05;5.28;;;;;;;-147.53;100.00;57128.34;10320413;28;20046;-73
2022/06/13 04:35:56;;;;;;;16.10;5.45;;;;;;;-147.53;100.00;57128.34;10320217;28;20049;-73
2022/06/13 04:41:02;;;;;;;14.55;5.15;;;;;;;-147.53;100.00;57128.34;10320450;28;20370;-73
2022/06/13 04:46:13;;;;;;;18.10;5.97;;;;;;;-147.53;100.00;57128.34;10320279;28;20053;-73
2022/06/13 04:51:19;;;;;;;15.88;6.15;;;;;;;-147.53;100.00;57128.34;10320412;28;20046;-73
2022/06/13 04:56:22;;;;;;;17.88;5.80;;;;;;;-147.53;100.00;57128.34;10320477;28;20138;-73
2022/06/13 05:01:46;;;;;;;17.15;5.25;;;;;;;-147.53;100.00;57128.34;10301914;28;20050;-73
2022/06/13 05:06:54;;;;;;;18.20;6.05;;;;;;;-147.53;100.00;57128.34;10319280;28;20070;-72
2022/06/13 05:12:14;;;;;;;14.75;5.25;;;;;;;-147.53;100.00;57128.34;10319182;28;20702;-73
2022/06/13 05:17:51;;;;;;;17.95;4.95;;;;;;;-147.53;100.00;57128.34;10315562;28;20730;-74
2022/06/13 05:22:53;;;;;;;18.67;5.72;;;;;;;-147.53;100.00;57128.34;10318499;28;20114;-74
2022/06/13 05:27:55;;;;;;;14.80;5.43;;;;;;;-147.53;100.00;57128.34;10319002;28;20046;-74
2022/06/13 05:32:57;;;;;;;19.67;4.97;;;;;;;-147.53;100.00;57128.34;10317806;28;20042;-73
2022/06/13 05:38:01;;;;;;;13.20;4.70;;;;;;;-147.53;100.00;57128.34;10324887;28;20050;-76
2022/06/13 05:43:03;;;;;;;13.55;4.43;;;;;;;-147.53;100.00;57128.34;10318060;28;20056;-73
2022/06/13 05:48:10;;;;;;;15.70;5.18;;;;;;;-147.53;100.00;57128.34;10317480;28;20042;-74
2022/06/13 05:53:13;;;;;;;10.45;4.15;;;;;;;-147.53;100.00;57128.34;10327336;28;20038;-74
2022/06/13 05:58:17;;;;;;;13.25;4.93;;;;;;;-147.53;100.00;57128.34;10317462;28;20137;-74
2022/06/13 06:03:19;;;;;;;17.60;4.68;;;;;;;-147.53;100.00;57128.34;10305907;28;20047;-74
2022/06/13 06:08:23;;;;;;;12.38;4.10;;;;;;;-147.53;100.00;57128.34;10317532;28;20065;-74
2022/06/13 06:13:27;;;;;;;21.80;4.80;;;;;;;-147.53;100.00;57128.34;10317509;28;20498;-74
2022/06/13 06:18:29;;;;;;;18.08;4.55;;;;;;;-147.53;100.00;57128.34;10316209;28;20057;-74
2022/06/13 06:23:31;;;;;;;15.30;5.18;;;;;;;-147.53;100.00;57128.34;10298914;28;20137;-74
2022/06/13 06:28:33;;;;;;;13.82;4.70;;;;;;;-147.53;100.00;57128.34;10316326;28;20054;-74
2022/06/13 06:33:34;;;;;;;13.10;4.22;;;;;;;-147.53;100.00;57128.34;10315980;28;20046;-74
2022/06/13 06:38:36;;;;;;;14.88;2.85;;;;;;;-147.53;100.00;57128.34;10323147;28;20042;-75
2022/06/13 06:43:37;;;;;;;10.43;2.53;;;;;;;-147.53;100.00;57128.34;10322260;28;20047;-74
2022/06/13 06:48:40;;;;;;;8.10;2.38;;;;;;;-147.53;100.00;57128.34;10316141;28;20058;-74
2022/06/13 07:04:23;;;;;;;3.70;0.90;;;;;;;-147.53;100.00;57128.34;10315897;28;20038;-75
2022/06/13 07:09:24;;;;;;;1.63;0.52;;;;;;;-147.53;100.00;57128.34;10322980;28;20421;-75
2022/06/13 07:14:32;;;;;;;2.88;0.75;;;;;;;-147.53;100.00;57128.34;10318048;28;20049;-74
2022/06/13 07:19:34;;;;;;;1.40;0.60;;;;;;;-147.53;100.00;57128.34;10326348;28;20050;-74
2022/06/13 07:24:36;;;;;;;2.47;0.73;;;;;;;-147.53;100.00;57128.34;10316899;28;20130;-74
2022/06/13 07:29:38;;;;;;;2.50;0.80;;;;;;;-147.53;100.00;57128.34;10316496;28;20541;-75
2022/06/13 07:34:42;;;;;;;3.63;1.30;;;;;;;-147.53;100.00;57128.34;10331685;28;20050;-75
2022/06/13 07:39:44;;;;;;;3.72;1.08;;;;;;;-147.53;100.00;57128.34;10324911;28;20054;-75
2022/06/13 07:44:45;;;;;;;5.78;1.55;;;;;;;-147.53;100.00;57128.34;10325007;28;20046;-74
2022/06/13 07:49:47;;;;;;;4.88;1.20;;;;;;;-147.53;100.00;57128.34;10333077;28;20054;-74
2022/06/13 07:54:49;;;;;;;2.38;0.75;;;;;;;-147.53;100.00;57128.34;10340426;28;20061;-75
2022/06/13 07:59:50;;;;;;;5.53;0.80;;;;;;;-147.53;100.00;57128.34;10318788;28;20417;-74
2022/06/13 08:04:52;;;;;;;7.47;1.27;;;;;;;-147.53;100.00;57128.34;10328740;28;20038;-75
2022/06/13 08:10:00;;;;;;;3.07;0.90;;;;;;;-147.53;100.00;57128.34;10322956;28;20058;-75
2022/06/13 08:15:02;;;;;;;3.85;0.80;;;;;;;-147.53;100.00;57128.34;10327969;28;20565;-75
2022/06/13 08:20:04;;;;;;;4.90;1.00;;;;;;;-147.53;100.00;57128.34;10324258;28;20511;-75
2022/06/13 08:25:06;;;;;;;3.63;1.10;;;;;;;-147.53;100.00;57128.34;10335755;28;20041;-75
2022/06/13 08:30:08;;;;;;;3.13;0.85;;;;;;;-147.53;100.00;57128.34;10331891;28;20046;-75
2022/06/13 08:35:11;;;;;;;7.32;1.02;;;;;;;-147.53;100.00;57128.34;10311217;28;20046;-75
2022/06/13 08:40:13;;;;;;;4.68;1.50;;;;;;;-147.53;100.00;57128.34;10327411;28;20107;-74
2022/06/13 08:45:24;;;;;;;6.53;0.80;;;;;;;-147.53;100.00;57128.34;10321334;28;20052;-74
2022/06/13 08:50:49;;;;;;;3.08;0.55;;;;;;;-147.53;100.00;57128.34;10327134;28;20112;-74
2022/06/13 08:56:02;;;;;;;2.03;0.55;;;;;;;-147.53;100.00;57128.34;10327992;28;20054;-74
2022/06/13 09:01:10;;;;;;;2.45;0.55;;;;;;;-147.53;100.00;57128.34;10315242;28;20050;-75
2022/06/13 09:06:17;;;;;;;4.00;0.65;;;;;;;-147.53;100.00;57128.34;10320688;28;20034;-75
2022/06/13 09:11:26;;;;;;;1.55;0.28;;;;;;;-147.53;100.00;57128.34;10302225;28;20062;-74
2022/06/13 09:16:33;;;;;;;1.17;0.47;;;;;;;-147.53;100.00;57128.34;10320400;28;20035;-73
2022/06/13 09:21:49;;;;;;;1.15;0.43;;;;;;;-147.53;100.00;57128.34;10319212;28;20534;-73
2022/06/13 09:26:55;;;;;;;4.22;0.75;;;;;;;-147.53;100.00;57128.34;10320414;28;20428;-74
2022/06/13 09:32:02;;;;;;;3.10;0.70;;;;;;;-147.53;100.00;57128.34;10308928;28;20047;-74
2022/06/13 09:37:07;;;;;;;3.80;0.60;;;;;;;-147.53;100.00;57128.34;10320176;28;20750;-74
2022/06/13 09:42:14;;;;;;;4.13;0.82;;;;;;;-147.53;100.00;57128.34;10321146;28;20050;-74
2022/06/13 09:47:31;;;;;;;3.92;0.60;;;;;;;-147.53;100.00;57128.34;10330386;28;20536;-75
2022/06/13 09:53:09;;;;;;;2.58;0.50;;;;;;;-147.53;100.00;57128.34;10316801;28;20540;-74
2022/06/13 09:58:33;;;;;;;1.92;0.50;;;;;;;-147.53;100.00;57128.34;10318977;28;20145;-73
2022/06/13 10:03:55;;;;;;;3.10;0.93;;;;;;;-147.53;100.00;57128.34;10318786;28;20060;-74
2022/06/13 10:09:14;;;;;;;3.00;0.75;;;;;;;-147.53;100.00;57128.34;10320004;28;20090;-74
2022/06/13 10:14:26;;;;;;;5.33;0.90;;;;;;;-147.53;100.00;57128.34;10326736;28;20050;-76
2022/06/13 10:19:52;;;;;;;2.38;0.55;;;;;;;-147.53;100.00;57128.34;10325766;28;20550;-76
2022/06/13 10:25:06;;;;;;;4.22;0.70;;;;;;;-147.53;100.00;57128.34;10315092;28;20034;-75
2022/06/13 10:30:13;;;;;;;1.63;0.57;;;;;;;-147.53;100.00;57128.34;10324055;28;20046;-75
2022/06/13 10:35:54;;;;;;;2.53;0.82;;;;;;;-147.53;100.00;57128.34;10318215;28;20129;-73
2022/06/13 10:40:56;;;;;;;;;;;;;;;-147.53;100.00;57128.34;10317799;28;20062;-74
2022/06/13 10:45:58;;;;;;;1.65;0.68;;;;;;;-147.53;100.00;57128.34;10317893;28;19928;-74
2022/06/13 10:51:03;;;;;;;2.67;0.50;;;;;;;-147.53;100.00;57128.34;10329763;28;20048;-74
2022/06/13 10:56:26;;;;;;;2.83;0.80;;;;;;;-147.53;100.00;57128.34;10315284;28;20050;-74
2022/06/13 11:01:30;;;;;;;1.40;0.98;;;;;;;-147.53;100.00;57128.34;10328449;28;20437;-75
2022/06/13 11:06:47;;;;;;;2.10;0.70;;;;;;;-147.53;100.00;57128.34;10306901;28;20077;-75
2022/06/13 11:11:54;;;;;;;2.03;0.63;;;;;;;-147.53;100.00;57128.34;10295489;28;20076;-74
2022/06/13 11:22:39;;;;;;;4.22;0.70;;;;;;;-147.53;100.00;57128.34;10340368;28;20043;-74
2022/06/13 11:27:41;;;;;;;4.25;0.70;;;;;;;-147.53;100.00;57128.34;10335022;28;20077;-73
2022/06/13 11:32:57;;;;;;;2.97;0.70;;;;;;;-147.53;100.00;57128.34;10327100;28;20046;-73
2022/06/13 11:38:22;;;;;;;3.72;0.65;;;;;;;-147.53;100.00;57128.34;10321779;28;20056;-74
2022/06/13 11:43:35;;;;;;;3.10;0.50;;;;;;;-147.53;100.00;57128.34;10315621;28;20046;-75
2022/06/13 11:48:45;;;;;;;1.88;0.63;;;;;;;-147.53;100.00;57128.34;10321777;28;20691;-75
2022/06/13 11:53:53;;;;;;;5.80;0.93;;;;;;;-147.53;100.00;57128.34;10320895;28;20148;-74
2022/06/13 11:59:00;;;;;;;1.73;0.60;;;;;;;-147.53;100.00;57128.34;10320898;28;20414;-74
2022/06/13 12:04:16;;;;;;;0.50;0.40;;;;;;;-147.53;100.00;57128.34;10319727;28;20042;-73
2022/06/13 12:09:24;;;;;;;2.13;0.80;;;;;;;-147.53;100.00;57128.34;10320583;28;20505;-74
2022/06/13 12:14:27;;;;;;;1.60;0.57;;;;;;;-147.53;100.00;57128.34;10319135;28;20050;-73
2022/06/13 12:19:38;;;;;;;2.95;0.70;;;;;;;-147.53;100.00;57128.34;10302040;28;20043;-74
2022/06/13 12:25:04;;;;;;;2.40;0.73;;;;;;;-147.53;100.00;57128.34;10319639;28;20132;-74
2022/06/13 12:30:15;;;;;;;4.07;0.90;;;;;;;-147.53;100.00;57128.34;10313279;28;20152;-73
2022/06/13 12:35:40;;;;;;;5.55;1.00;;;;;;;-147.53;100.00;57128.34;10335106;28;20494;-73
2022/06/13 12:40:45;;;;;;;3.42;0.90;;;;;;;-147.53;100.00;57128.34;10294723;28;20065;-72
2022/06/13 12:46:12;;;;;;;7.57;1.15;;;;;;;-147.53;100.00;57128.34;10319553;28;20043;-72
2022/06/13 12:51:27;;;;;;;8.18;0.90;;;;;;;-147.53;100.00;57128.34;10318187;28;20414;-75
2022/06/13 12:56:40;;;;;;;9.75;1.30;;;;;;;-147.53;100.00;57128.34;10314266;28;20831;-74
2022/06/13 13:01:58;;;;;;;6.68;1.10;;;;;;;-147.53;100.00;57128.34;10319605;28;20042;-75
2022/06/13 13:07:35;;;;;;;5.95;1.10;;;;;;;-147.53;100.00;57128.34;10312406;28;20054;-73
2022/06/13 13:13:21;;;;;;;5.07;0.90;;;;;;;-147.53;100.00;57128.34;10309361;28;20480;-77
2022/06/13 13:18:26;;;;;;;7.32;1.40;;;;;;;-147.53;100.00;57128.34;10262304;28;20058;-76
2022/06/13 13:23:44;;;;;;;4.40;1.10;;;;;;;-147.53;100.00;57128.34;10311886;28;20483;-71
2022/06/13 13:28:53;;;;;;;5.30;1.10;;;;;;;-147.53;100.00;57128.34;10316028;28;20049;-74
2022/06/13 13:34:03;;;;;;;4.88;0.90;;;;;;;-147.53;100.00;57128.34;10319123;28;20072;-72
2022/06/13 13:39:14;;;;;;;4.40;1.02;;;;;;;-147.53;100.00;57128.34;10329804;28;20047;-71
2022/06/13 13:44:20;;;;;;;12.57;2.10;;;;;;;-147.53;100.00;57128.34;10318605;28;20042;-72
2022/06/13 13:49:28;;;;;;;4.05;0.80;;;;;;;-147.53;100.00;57128.34;10336837;28;20049;-73
2022/06/13 13:54:44;;;;;;;5.72;0.73;;;;;;;-147.53;100.00;57128.34;10311431;28;20042;-72
2022/06/13 13:59:54;;;;;;;5.03;1.02;;;;;;;-147.53;100.00;57128.34;10315693;28;20138;-72
2022/06/13 14:05:26;;;;;;;5.20;0.75;;;;;;;-147.53;100.00;57128.34;10323194;28;20046;-76
2022/06/13 14:10:30;;;;;;;5.32;0.77;;;;;;;-147.53;100.00;57128.34;10313701;28;20054;-75
2022/06/13 14:15:49;;;;;;;2.92;0.80;;;;;;;-147.53;100.00;57128.34;10298107;28;20533;-75
2022/06/13 14:20:52;;;;;;;3.90;0.57;;;;;;;-147.53;100.00;57128.34;10311592;28;20089;-74
2022/06/13 14:25:53;;;;;;;1.38;0.60;;;;;;;-147.53;100.00;57128.34;10314394;28;20279;-73
2022/06/13 14:31:03;;;;;;;9.43;1.00;;;;;;;-147.53;100.00;57128.34;10314687;28;20044;-73
2022/06/13 14:36:08;;;;;;;3.05;0.60;;;;;;;-147.53;100.00;57128.34;10314979;28;20145;-74
2022/06/13 14:41:21;;;;;;;1.85;0.65;;;;;;;-147.53;100.00;57128.34;10297514;28;20056;-71
2022/06/13 14:46:44;;;;;;;6.80;1.27;;;;;;;-147.53;100.00;57128.34;10315579;28;20049;-76
2022/06/13 14:52:18;;;;;;;3.42;0.80;;;;;;;-147.53;100.00;57128.34;10296793;28;20046;-75
2022/06/13 14:57:26;;;;;;;3.03;0.65;;;;;;;-147.53;100.00;57128.34;10305335;28;20121;-76
2022/06/13 15:02:33;;;;;;;2.55;0.68;;;;;;;-147.53;100.00;57128.34;10326603;28;20085;-72
2022/06/13 15:08:01;;;;;;;3.47;1.00;;;;;;;-147.53;100.00;57128.34;10310332;28;20054;-77
2022/06/13 15:13:04;;;;;;;2.35;1.00;;;;;;;-147.53;100.00;57128.34;10298068;28;20081;-72
2022/06/13 15:18:06;;;;;;;2.65;0.70;;;;;;;-147.53;100.00;57128.34;10314706;28;20099;-72
2022/06/13 15:23:17;;;;;;;4.22;0.80;;;;;;;-147.53;100.00;57128.34;10313512;28;20051;-74
2022/06/13 15:28:21;;;;;;;5.60;0.98;;;;;;;-147.53;100.00;57128.34;10313881;28;20050;-76
2022/06/13 15:33:30;;;;;;;3.45;1.00;;;;;;;-147.53;100.00;57128.34;10313942;28;20061;-75
2022/06/13 15:38:39;;;;;;;6.00;1.00;;;;;;;-147.53;100.00;57128.34;10320236;28;20050;-78
2022/06/13 15:43:46;;;;;;;6.88;1.10;;;;;;;-147.53;100.00;57128.34;10310555;28;20149;-74
2022/06/13 15:48:51;;;;;;;4.45;0.90;;;;;;;-147.53;100.00;57128.34;10315539;28;20048;-76
2022/06/13 15:53:53;;;;;;;5.32;0.90;;;;;;;-147.53;100.00;57128.34;10320584;28;20046;-75
2022/06/13 15:58:57;;;;;;;5.88;1.13;;;;;;;-147.53;100.00;57128.34;10332699;28;20060;-75
2022/06/13 16:04:03;;;;;;;3.80;1.00;;;;;;;-147.53;100.00;57128.34;10333859;28;20053;-74
2022/06/13 16:09:04;;;;;;;6.93;1.10;;;;;;;-147.53;100.00;57128.34;10336434;28;20054;-75
2022/06/13 16:14:06;;;;;;;4.13;0.70;;;;;;;-147.53;100.00;57128.34;10354149;28;20053;-76
2022/06/13 16:19:24;;;;;;;6.55;1.30;;;;;;;-147.53;100.00;57128.34;10348538;28;20111;-75
2022/06/13 16:24:30;;;;;;;8.40;1.25;;;;;;;-147.53;100.00;57128.34;10347945;28;20096;-73
2022/06/13 16:29:32;;;;;;;6.88;1.00;;;;;;;-147.53;100.00;57128.34;10327095;28;20347;-73
2022/06/13 16:34:35;;;;;;;6.95;1.10;;;;;;;-147.53;100.00;57128.34;10353336;28;20048;-73
2022/06/13 16:39:40;;;;;;;7.25;1.00;;;;;;;-147.53;100.00;57128.34;10338142;28;20042;-75
2022/06/13 16:44:46;;;;;;;6.97;1.20;;;;;;;-147.53;100.00;57128.34;10337874;28;20034;-74
2022/06/13 16:49:55;;;;;;;4.18;1.00;;;;;;;-147.53;100.00;57128.34;10318564;28;20057;-75
2022/06/13 16:55:06;;;;;;;4.83;1.07;;;;;;;-147.53;100.00;57128.34;10326591;28;20421;-74
2022/06/13 17:00:31;;;;;;;8.88;1.10;;;;;;;-147.53;100.00;57128.34;10333574;28;20056;-76
2022/06/13 17:05:38;;;;;;;4.72;1.00;;;;;;;-147.53;100.00;57128.34;10324509;28;20057;-76
2022/06/13 17:10:49;;;;;;;6.07;1.00;;;;;;;-147.53;100.00;57128.34;10336570;28;20121;-74
2022/06/13 17:15:55;;;;;;;5.57;1.10;;;;;;;-147.53;100.00;57128.34;10335484;28;20125;-86
2022/06/13 17:21:00;;;;;;;7.30;1.20;;;;;;;-147.53;100.00;57128.34;10336360;28;20046;-77
2022/06/13 17:36:55;;;;;;;9.27;1.10;;;;;;;-147.53;100.00;57128.34;10326417;28;20093;-75
2022/06/13 17:41:57;;;;;;;11.03;1.10;;;;;;;-147.53;100.00;57128.34;10304500;28;20056;-75
2022/06/13 17:47:01;;;;;;;7.25;1.10;;;;;;;-147.53;100.00;57128.34;10317254;28;20043;-74
2022/06/13 17:52:04;;;;;;;12.32;1.60;;;;;;;-147.53;100.00;57128.34;10314495;28;20046;-74
2022/06/13 17:57:11;;;;;;;4.50;1.08;;;;;;;-147.53;100.00;57128.34;10328046;28;20129;-72
2022/06/13 18:02:13;;;;;;;5.57;1.17;;;;;;;-147.53;100.00;57128.34;10308348;28;20046;-74
2022/06/13 18:07:18;;;;;;;6.30;1.40;;;;;;;-147.53;100.00;57128.34;10324186;28;20513;-73
2022/06/13 18:12:20;;;;;;;4.47;0.90;;;;;;;-147.53;100.00;57128.34;10318622;28;20072;-74
2022/06/13 18:17:25;;;;;;;9.32;1.25;;;;;;;-147.53;100.00;57128.34;10325808;28;20050;-74
2022/06/13 18:22:27;;;;;;;3.08;0.85;;;;;;;-147.53;100.00;57128.34;10321869;28;20506;-74
2022/06/13 18:27:29;;;;;;;4.93;1.08;;;;;;;-147.53;100.00;57128.34;10347194;28;20073;-74
2022/06/13 18:32:31;;;;;;;5.22;0.90;;;;;;;-147.53;100.00;57128.34;10334374;28;20052;-73
2022/06/13 18:37:33;;;;;;;5.38;1.00;;;;;;;-147.53;100.00;57128.34;10318418;28;20071;-74
2022/06/13 18:42:39;;;;;;;4.82;0.90;;;;;;;-147.53;100.00;57128.34;10299402;28;20100;-73
2022/06/13 18:47:41;;;;;;;5.15;0.90;;;;;;;-147.53;100.00;57128.34;10307530;28;20180;-74
2022/06/13 18:52:43;;;;;;;5.00;0.98;;;;;;;-147.53;100.00;57128.34;10332830;28;20041;-74
2022/06/13 18:57:44;;;;;;;4.85;1.20;;;;;;;-147.53;100.00;57128.34;10325858;28;20050;-72
2022/06/13 19:02:59;;;;;;;4.78;0.82;;;;;;;-147.53;100.00;57128.34;10342416;28;20414;-73
2022/06/13 19:08:03;;;;;;;5.80;1.23;;;;;;;-147.53;100.00;57128.34;10316666;28;20482;-74
2022/06/13 19:13:08;;;;;;;8.15;1.20;;;;;;;-147.53;100.00;57128.34;10315490;28;20050;-73
2022/06/13 19:18:14;;;;;;;5.93;1.33;;;;;;;-147.53;100.00;57128.34;10329251;28;20580;-75
2022/06/13 19:23:17;;;;;;;6.68;1.10;;;;;;;-147.53;100.00;57128.34;10329694;28;20540;-74
2022/06/13 19:28:25;;;;;;;7.22;1.27;;;;;;;-147.53;100.00;57128.34;10326503;28;20066;-73
2022/06/13 19:33:28;;;;;;;8.63;1.60;;;;;;;-147.53;100.00;57128.34;10324176;28;20050;-75
2022/06/13 19:38:32;;;;;;;6.82;1.23;;;;;;;-147.53;100.00;57128.34;10328795;28;20389;-74
2022/06/13 19:43:37;;;;;;;4.53;1.00;;;;;;;-147.53;100.00;57128.34;10322290;28;20061;-73
2022/06/13 19:48:39;;;;;;;9.32;1.02;;;;;;;-147.53;100.00;57128.34;10322605;28;20046;-74
2022/06/13 19:53:44;;;;;;;4.78;1.27;;;;;;;-147.53;100.00;57128.34;10330080;28;20149;-74
2022/06/13 19:58:46;;;;;;;5.80;1.20;;;;;;;-147.53;100.00;57128.34;10322820;28;20073;-74
2022/06/13 20:03:50;;;;;;;7.32;1.58;;;;;;;-147.53;100.00;57128.34;10328548;28;20141;-76
2022/06/13 20:08:52;;;;;;;11.57;1.75;;;;;;;-147.53;100.00;57128.34;10322495;28;20092;-74
2022/06/13 20:13:58;;;;;;;8.05;1.40;;;;;;;-147.53;100.00;57128.34;10310480;28;20057;-74
2022/06/13 20:19:12;;;;;;;6.00;1.20;;;;;;;-147.53;100.00;57128.34;10328512;28;20545;-75
2022/06/13 20:24:14;;;;;;;9.77;1.50;;;;;;;-147.53;100.00;57128.34;10321591;28;20137;-75
2022/06/13 20:29:16;;;;;;;4.07;1.08;;;;;;;-147.53;100.00;57128.34;10306514;28;20061;-74
2022/06/13 20:34:22;;;;;;;5.35;1.20;;;;;;;-147.53;100.00;57128.34;10328613;28;20081;-75
2022/06/13 20:39:30;;;;;;;8.30;1.10;;;;;;;-147.53;100.00;57128.34;10320165;28;20049;-74
2022/06/13 20:44:37;;;;;;;6.43;1.60;;;;;;;-147.53;100.00;57128.34;10330488;28;20050;-73
2022/06/13 20:49:43;;;;;;;7.40;1.10;;;;;;;-147.53;100.00;57128.34;10309913;28;20560;-75
2022/06/13 20:54:45;;;;;;;11.95;1.70;;;;;;;-147.53;100.00;57128.34;10321644;28;20038;-74
2022/06/13 20:59:46;;;;;;;8.38;1.40;;;;;;;-147.53;100.00;57128.34;10331547;28;20137;-73
2022/06/13 21:04:51;;;;;;;8.88;1.38;;;;;;;-147.53;100.00;57128.34;10334595;28;20622;-76
2022/06/13 21:10:13;;;;;;;4.15;1.10;;;;;;;-147.53;100.00;57128.34;10341327;28;20141;-74
2022/06/13 21:15:21;;;;;;;9.00;1.30;;;;;;;-147.53;100.00;57128.34;10309972;28;20141;-73
2022/06/13 21:20:25;;;;;;;5.93;1.52;;;;;;;-147.53;100.00;57128.34;10339412;28;20563;-74
2022/06/13 21:25:31;;;;;;;4.53;1.15;;;;;;;-147.53;100.00;57128.34;10320431;28;20038;-73
2022/06/13 21:30:37;;;;;;;6.85;1.88;;;;;;;-147.53;100.00;57128.34;10337129;28;20686;-72
2022/06/13 21:35:40;;;;;;;7.30;1.13;;;;;;;-147.53;100.00;57128.34;10326133;28;20043;-73
2022/06/13 21:40:46;;;;;;;8.18;1.30;;;;;;;-147.53;100.00;57128.34;10324046;28;20054;-74
2022/06/13 21:45:48;;;;;;;5.00;1.38;;;;;;;-147.53;100.00;57128.34;10318625;28;20077;-72
2022/06/13 21:50:52;;;;;;;9.38;1.67;;;;;;;-147.53;100.00;57128.34;10329164;28;20046;-73
2022/06/13 21:56:00;;;;;;;3.75;1.17;;;;;;;-147.53;100.00;57128.34;10320818;28;20077;-73
2022/06/13 22:01:05;;;;;;;9.00;1.50;;;;;;;-147.53;100.00;57128.34;10323372;28;20424;-73
2022/06/13 22:06:07;;;;;;;8.77;1.52;;;;;;;-147.53;100.00;57128.34;10324521;28;20058;-73
2022/06/13 22:11:09;;;;;;;7.10;1.58;;;;;;;-147.53;100.00;57128.34;10317277;28;20076;-74
2022/06/13 22:16:10;;;;;;;7.03;1.35;;;;;;;-147.53;100.00;57128.34;10320933;28;20124;-73
2022/06/13 22:21:12;;;;;;;6.63;1.40;;;;;;;-147.53;100.00;57128.34;10326485;28;20079;-73
2022/06/13 22:26:14;;;;;;;6.53;1.48;;;;;;;-147.53;100.00;57128.34;10321517;28;20041;-73
2022/06/13 22:31:15;;;;;;;5.32;1.40;;;;;;;-147.53;100.00;57128.34;10324203;28;20065;-73
2022/06/13 22:36:18;;;;;;;6.78;1.30;;;;;;;-147.53;100.00;57128.34;10323198;28;20070;-73
2022/06/13 22:41:19;;;;;;;10.07;1.65;;;;;;;-147.53;100.00;57128.34;10330295;28;20042;-73
2022/06/13 22:51:41;;;;;;;9.40;1.38;;;;;;;-147.53;100.00;57128.34;10327017;28;20413;-73
2022/06/13 22:56:43;;;;;;;3.92;1.30;;;;;;;-147.53;100.00;57128.34;10299353;28;20070;-73
2022/06/13 23:01:45;;;;;;;8.07;1.98;;;;;;;-147.53;100.00;57128.34;10326451;28;20129;-73
2022/06/13 23:06:46;;;;;;;8.85;1.70;;;;;;;-147.53;100.00;57128.34;10336072;28;20386;-73
2022/06/13 23:11:48;;;;;;;10.85;1.52;;;;;;;-147.53;100.00;57128.34;10334906;28;20054;-72
2022/06/13 23:16:49;;;;;;;12.30;2.10;;;;;;;-147.53;100.00;57128.34;10347797;28;20046;-74
2022/06/13 23:21:51;;;;;;;7.15;1.83;;;;;;;-147.53;100.00;57128.34;10340920;28;20054;-73
2022/06/13 23:26:53;;;;;;;8.25;1.83;;;;;;;-147.53;100.00;57128.34;10334600;28;20042;-73
2022/06/13 23:31:55;;;;;;;8.02;2.28;;;;;;;-147.53;100.00;57128.34;10341308;28;20081;-73
2022/06/13 23:36:56;;;;;;;8.32;2.65;;;;;;;-147.53;100.00;57128.34;10330172;28;20501;-73
2022/06/13 23:41:58;;;;;;;6.00;1.70;;;;;;;-147.53;100.00;57128.34;10328701;28;20429;-74